KCSQ/CSQ METAR and TAF weather

Enter ICAO airport designator
Station Type Date Time Source
KCSQ METAR 2018/12/12 16:55 UTC NOAA

KCSQ 121655Z AUTO 26012KT 10SM CLR 02/M01 A2985 RMK AO2


Station Type Date Time Source
KCSQ Decoded METAR 2018/12/12 16:55 UTC NOAA

Creston, IA, United States (KCSQ) 41-01N 094-22W
Dec 12, 2018 - 11:55 AM EST / 2018.12.12 1655 UTC
Wind: from the W (260 degrees) at 14 MPH (12 KT):0
Visibility: 10 mile(s):0
Sky conditions: clear
Temperature: 35 F (2 C)
Windchill: 26 F (-3 C):1
Dew Point: 30 F (-1 C)
Relative Humidity: 80%
Pressure (altimeter): 29.85 in. Hg (1010 hPa)
ob: KCSQ 121655Z AUTO 26012KT 10SM CLR 02/M01 A2985 RMK AO2
cycle: 17

Station Type Date Time Source
KCSQ TAF UTC NOAA

Error!


Example: see airport list